Time;durP1;ratioP1;P1;durP2;ratioP2;P2;SDS_P1;SDS_P2;PMS_P1;PMS_P2;Temp;Humidity;BMP_temperature;BMP_pressure;BME280_temperature;BME280_humidity;BME280_pressure;Samples;Min_cycle;Max_cycle;Signal;HPM_P1;HPM_P2
2024/02/13 00:01:42;;;;;;;5.60;2.57;;;8.20;99.90;;;;;;5042968;28;20225;-59
2024/02/13 00:04:10;;;;;;;4.53;2.00;;;8.30;99.90;;;;;;5042262;28;20241;-58
2024/02/13 00:06:37;;;;;;;5.60;2.00;;;8.40;99.90;;;;;;5039849;28;20206;-60
2024/02/13 00:09:05;;;;;;;6.57;1.90;;;8.40;99.90;;;;;;5039573;28;20214;-58
2024/02/13 00:11:31;;;;;;;3.77;2.03;;;8.40;99.90;;;;;;5031909;28;20223;-59
2024/02/13 00:13:58;;;;;;;4.70;1.93;;;8.30;99.90;;;;;;5039624;28;20597;-59
2024/02/13 00:16:25;;;;;;;7.20;2.00;;;8.20;99.90;;;;;;5042390;28;20578;-59
2024/02/13 00:18:52;;;;;;;4.90;1.73;;;8.20;99.90;;;;;;5042669;28;20314;-59
2024/02/13 00:21:19;;;;;;;3.87;1.70;;;8.30;99.90;;;;;;5040696;28;20229;-59
2024/02/13 00:23:46;;;;;;;5.60;1.70;;;8.40;99.90;;;;;;5039667;28;20215;-59
2024/02/13 00:26:14;;;;;;;6.00;2.10;;;8.40;99.90;;;;;;5040668;28;20210;-59
2024/02/13 00:28:41;;;;;;;4.20;2.03;;;8.40;99.90;;;;;;5042982;28;20201;-59
2024/02/13 00:31:08;;;;;;;7.00;1.70;;;8.40;99.90;;;;;;5042042;28;20222;-58
2024/02/13 00:33:35;;;;;;;6.47;1.73;;;8.50;99.90;;;;;;5039484;28;20294;-58
2024/02/13 00:36:02;;;;;;;5.37;1.50;;;8.60;99.90;;;;;;5039398;28;20321;-58
2024/02/13 00:38:30;;;;;;;5.67;1.90;;;8.60;99.90;;;;;;5042611;28;20201;-58
2024/02/13 00:40:56;;;;;;;6.07;1.70;;;8.60;99.90;;;;;;5044692;28;20308;-58
2024/02/13 00:43:24;;;;;;;8.40;2.03;;;8.60;99.90;;;;;;5043707;28;20240;-58
2024/02/13 00:45:51;;;;;;;6.57;1.73;;;8.60;99.90;;;;;;5042656;28;20587;-58
2024/02/13 00:48:18;;;;;;;3.47;1.60;;;8.60;99.90;;;;;;5044643;28;20214;-58
2024/02/13 00:50:46;;;;;;;4.60;1.90;;;8.70;99.90;;;;;;5045791;28;20229;-58
2024/02/13 00:53:15;;;;;;;5.10;1.87;;;8.80;99.90;;;;;;5045003;28;20209;-59
2024/02/13 00:55:43;;;;;;;6.83;1.97;;;8.90;99.90;;;;;;5042435;28;20223;-59
2024/02/13 00:58:10;;;;;;;5.07;1.57;;;8.90;99.90;;;;;;5043073;28;20229;-59
2024/02/13 01:00:39;;;;;;;4.90;1.87;;;9.00;99.90;;;;;;5045450;28;20209;-59
2024/02/13 01:03:06;;;;;;;4.53;1.83;;;9.00;99.90;;;;;;5045727;28;20217;-59
2024/02/13 01:05:33;;;;;;;4.20;1.60;;;9.10;99.90;;;;;;5042671;28;20202;-59
2024/02/13 01:08:01;;;;;;;6.30;2.20;;;9.10;99.90;;;;;;5042414;28;20653;-59
2024/02/13 01:10:28;;;;;;;7.77;1.80;;;9.20;99.90;;;;;;5044962;28;20209;-59
2024/02/13 01:12:54;;;;;;;8.13;1.70;;;9.20;99.90;;;;;;5045573;28;20213;-59
2024/02/13 01:15:22;;;;;;;4.40;1.70;;;9.20;99.90;;;;;;5043351;28;20671;-59
2024/02/13 01:17:50;;;;;;;7.53;1.87;;;9.30;99.90;;;;;;5042123;28;20229;-59
2024/02/13 01:20:18;;;;;;;5.87;1.87;;;9.30;99.90;;;;;;5043415;28;20210;-59
2024/02/13 01:22:45;;;;;;;6.30;1.70;;;9.30;99.90;;;;;;5045416;28;20240;-59
2024/02/13 01:25:13;;;;;;;5.77;1.90;;;9.40;99.90;;;;;;5044796;28;20216;-59
2024/02/13 01:27:40;;;;;;;4.10;1.30;;;9.40;99.90;;;;;;5041887;28;20203;-58
2024/02/13 01:30:09;;;;;;;5.33;1.77;;;9.50;99.90;;;;;;5041850;28;20312;-58
2024/02/13 01:32:36;;;;;;;5.43;1.97;;;9.50;99.90;;;;;;5045147;28;20725;-58
2024/02/13 01:35:05;;;;;;;5.30;1.70;;;9.50;99.90;;;;;;5045419;28;20689;-58
2024/02/13 01:37:32;;;;;;;9.53;2.00;;;9.50;99.90;;;;;;5033704;28;20716;-58
2024/02/13 01:40:00;;;;;;;6.40;1.50;;;9.50;99.90;;;;;;5041455;28;20621;-58
2024/02/13 01:42:26;;;;;;;6.50;1.90;;;9.50;99.90;;;;;;5044391;28;21132;-58
2024/02/13 01:44:53;;;;;;;6.60;1.77;;;9.50;99.90;;;;;;5045142;28;20206;-59
2024/02/13 01:47:20;;;;;;;8.83;2.17;;;9.50;99.90;;;;;;5043314;28;20206;-58
2024/02/13 01:49:47;;;;;;;4.53;1.70;;;9.50;99.90;;;;;;5041882;28;20660;-58
2024/02/13 01:52:17;;;;;;;5.27;1.70;;;9.60;99.90;;;;;;5042643;28;20237;-59
2024/02/13 01:54:45;;;;;;;5.10;1.60;;;9.50;99.90;;;;;;5048170;28;20740;-58
2024/02/13 01:57:12;;;;;;;10.60;2.07;;;9.50;99.90;;;;;;5042122;28;20223;-58
2024/02/13 01:59:39;;;;;;;4.67;1.60;;;9.40;99.90;;;;;;5044663;28;20198;-58
2024/02/13 02:02:08;;;;;;;4.97;1.87;;;9.30;99.90;;;;;;5044982;28;20225;-59
2024/02/13 02:04:38;;;;;;;8.70;1.53;;;9.30;99.90;;;;;;5033574;28;20225;-59
2024/02/13 02:07:05;;;;;;;4.33;1.37;;;9.30;99.90;;;;;;5041289;28;20268;-59
2024/02/13 02:09:33;;;;;;;4.97;2.00;;;9.40;99.90;;;;;;5027990;28;20198;-58
2024/02/13 02:12:00;;;;;;;9.33;2.20;;;9.50;99.90;;;;;;5044623;28;20279;-58
2024/02/13 02:14:27;;;;;;;4.13;1.40;;;9.50;99.90;;;;;;5042051;28;20259;-59
2024/02/13 02:16:55;;;;;;;6.80;1.80;;;9.50;99.90;;;;;;5041234;28;20309;-59
2024/02/13 02:19:22;;;;;;;5.53;2.23;;;9.50;99.90;;;;;;5042907;28;20622;-59
2024/02/13 02:21:49;;;;;;;5.27;2.07;;;9.50;99.90;;;;;;5044126;28;20253;-59
2024/02/13 02:24:15;;;;;;;5.53;1.90;;;9.50;99.90;;;;;;5043477;28;20216;-59
2024/02/13 02:26:43;;;;;;;5.53;1.93;;;9.60;99.90;;;;;;5040853;28;20675;-59
2024/02/13 02:29:10;;;;;;;4.07;2.00;;;9.70;99.90;;;;;;5040873;28;20206;-59
2024/02/13 02:31:38;;;;;;;4.67;1.60;;;9.70;99.90;;;;;;5044127;28;20225;-59
2024/02/13 02:34:04;;;;;;;3.83;1.70;;;9.70;99.90;;;;;;5044077;28;20675;-59
2024/02/13 02:36:32;;;;;;;6.60;1.60;;;9.70;99.90;;;;;;5041153;28;20218;-59
2024/02/13 02:38:58;;;;;;;6.00;2.13;;;9.70;99.90;;;;;;5040544;28;20260;-59
2024/02/13 02:41:25;;;;;;;5.53;1.90;;;9.70;99.90;;;;;;5042872;28;20321;-59
2024/02/13 02:43:53;;;;;;;7.00;1.70;;;9.80;99.90;;;;;;5044051;28;20210;-59
2024/02/13 02:46:20;;;;;;;4.40;2.03;;;9.80;99.90;;;;;;5042268;28;20201;-59
2024/02/13 02:48:46;;;;;;;4.43;1.80;;;9.90;99.90;;;;;;5040220;28;20214;-59
2024/02/13 02:51:13;;;;;;;4.63;1.63;;;9.90;99.90;;;;;;5040994;28;20230;-59
2024/02/13 02:53:40;;;;;;;7.20;1.93;;;9.90;99.90;;;;;;5044049;28;20205;-59
2024/02/13 02:56:10;;;;;;;4.83;1.60;;;9.80;99.90;;;;;;5043813;28;20297;-59
2024/02/13 02:58:37;;;;;;;8.57;2.00;;;9.80;99.90;;;;;;5032750;28;20220;-59
2024/02/13 03:01:07;;;;;;;3.20;1.37;;;9.70;99.90;;;;;;5039992;28;20226;-59
2024/02/13 03:03:34;;;;;;;7.23;1.90;;;9.70;99.90;;;;;;5031762;28;20199;-59
2024/02/13 03:06:00;;;;;;;5.97;1.83;;;9.60;99.90;;;;;;5040396;28;20210;-59
2024/02/13 03:08:29;;;;;;;7.07;1.60;;;9.50;99.90;;;;;;5042632;28;20210;-59
2024/02/13 03:10:55;;;;;;;3.83;1.70;;;9.40;99.90;;;;;;5043306;28;20226;-59
2024/02/13 03:13:22;;;;;;;5.33;1.57;;;9.30;99.90;;;;;;5041761;28;20205;-59
2024/02/13 03:15:49;;;;;;;6.17;1.60;;;9.10;99.90;;;;;;5040000;28;20213;-59
2024/02/13 03:18:18;;;;;;;5.53;2.10;;;9.00;99.90;;;;;;5040878;28;20312;-59
2024/02/13 03:20:45;;;;;;;6.67;1.77;;;8.80;99.90;;;;;;5043271;28;20325;-59
2024/02/13 03:23:11;;;;;;;7.07;1.87;;;8.80;99.90;;;;;;5043162;28;20304;-59
2024/02/13 03:25:38;;;;;;;5.40;1.67;;;8.80;99.90;;;;;;5040032;28;20252;-59
2024/02/13 03:28:06;;;;;;;4.87;1.63;;;8.90;99.90;;;;;;5039878;28;20206;-59
2024/02/13 03:30:33;;;;;;;5.73;1.60;;;8.90;99.90;;;;;;5042883;28;20216;-59
2024/02/13 03:33:00;;;;;;;5.43;1.73;;;9.00;99.90;;;;;;5043409;28;20683;-59
2024/02/13 03:35:30;;;;;;;4.27;1.80;;;9.10;99.90;;;;;;5040852;28;20214;-60
2024/02/13 03:37:56;;;;;;;10.57;2.43;;;9.00;99.90;;;;;;5039785;28;20276;-59
2024/02/13 03:40:23;;;;;;;5.20;1.63;;;8.90;99.90;;;;;;5041239;28;20587;-59
2024/02/13 03:42:50;;;;;;;9.70;2.20;;;8.80;99.90;;;;;;5043026;28;20674;-59
2024/02/13 03:45:16;;;;;;;4.33;1.60;;;8.80;99.90;;;;;;5042371;28;20212;-59
2024/02/13 03:47:44;;;;;;;9.13;2.30;;;8.90;99.90;;;;;;5039947;28;20206;-59
2024/02/13 03:50:11;;;;;;;3.83;1.70;;;8.90;99.90;;;;;;5039468;28;20240;-59
2024/02/13 03:52:39;;;;;;;6.63;1.60;;;8.90;99.90;;;;;;5088981;22;20225;-57
2024/02/13 03:55:06;;;;;;;4.63;1.80;;;8.80;99.90;;;;;;5071656;28;20235;-58
2024/02/13 03:57:33;;;;;;;8.47;2.10;;;8.70;99.90;;;;;;5071252;28;20698;-58
2024/02/13 04:00:00;;;;;;;6.57;1.90;;;8.70;99.90;;;;;;5071271;28;20205;-58
2024/02/13 04:02:27;;;;;;;8.37;1.53;;;8.60;99.90;;;;;;5062756;28;20730;-58
2024/02/13 04:04:53;;;;;;;4.27;1.70;;;8.60;99.90;;;;;;5063198;28;20204;-58
2024/02/13 04:07:20;;;;;;;7.23;1.87;;;8.70;99.90;;;;;;5061624;28;20206;-58
2024/02/13 04:09:48;;;;;;;6.23;1.80;;;8.80;99.90;;;;;;5059340;28;20221;-58
2024/02/13 04:12:15;;;;;;;6.23;1.60;;;8.80;99.90;;;;;;5059616;28;20287;-58
2024/02/13 04:14:41;;;;;;;5.97;1.60;;;8.80;99.90;;;;;;5063648;28;20201;-58
2024/02/13 04:17:09;;;;;;;8.23;1.80;;;8.80;99.90;;;;;;5066657;28;20227;-58
2024/02/13 04:19:37;;;;;;;4.37;1.57;;;8.80;99.90;;;;;;5063066;28;20736;-58
2024/02/13 04:22:04;;;;;;;5.40;1.73;;;8.80;99.90;;;;;;5063139;28;20221;-58
2024/02/13 04:24:31;;;;;;;6.80;2.00;;;8.90;99.90;;;;;;5065751;28;20206;-58
2024/02/13 04:26:59;;;;;;;4.07;2.07;;;9.00;99.90;;;;;;5066543;28;20197;-58
2024/02/13 04:29:25;;;;;;;4.50;1.80;;;9.10;99.90;;;;;;5064683;28;20205;-58
2024/02/13 04:31:52;;;;;;;5.73;1.70;;;9.20;99.90;;;;;;5063048;28;20229;-58
2024/02/13 04:34:19;;;;;;;5.57;2.10;;;9.20;99.90;;;;;;5063804;28;20201;-58
2024/02/13 04:36:46;;;;;;;5.20;1.60;;;9.20;99.90;;;;;;5066317;28;20209;-58
2024/02/13 04:39:12;;;;;;;3.77;1.47;;;9.20;99.90;;;;;;5065571;28;20262;-58
2024/02/13 04:41:42;;;;;;;3.43;1.60;;;9.30;99.90;;;;;;5062650;28;20605;-58
2024/02/13 04:44:10;;;;;;;7.67;1.53;;;9.30;99.90;;;;;;5063128;28;20296;-58
2024/02/13 04:46:36;;;;;;;4.00;2.00;;;9.40;99.90;;;;;;5066217;28;20200;-60
2024/02/13 04:49:03;;;;;;;6.87;1.90;;;9.40;99.90;;;;;;5065993;28;20208;-58
2024/02/13 04:51:30;;;;;;;8.23;2.07;;;9.50;99.90;;;;;;5063340;28;20303;-58
2024/02/13 04:53:56;;;;;;;6.50;1.90;;;9.50;99.90;;;;;;5062649;28;20240;-58
2024/02/13 04:56:23;;;;;;;7.07;2.10;;;9.50;99.90;;;;;;5063690;28;20587;-58
2024/02/13 04:58:55;;;;;;;5.43;1.80;;;9.60;99.90;;;;;;5065736;28;20251;-58
2024/02/13 05:01:24;;;;;;;5.30;2.13;;;9.60;99.90;;;;;;5064649;28;20671;-58
2024/02/13 05:09:16;;;;;;;7.33;3.80;;;9.70;99.90;;;;;;5065050;28;20211;-58
2024/02/13 05:11:42;;;;;;;10.33;2.93;;;9.70;99.90;;;;;;5062185;28;20707;-58
2024/02/13 05:14:09;;;;;;;5.43;2.00;;;9.80;99.90;;;;;;5062150;28;20671;-58
2024/02/13 05:16:40;;;;;;;22.70;11.70;;;9.80;99.90;;;;;;5065278;28;20240;-58
2024/02/13 05:19:07;;;;;;;9.90;2.77;;;9.80;99.90;;;;;;5065488;28;20225;-58
2024/02/13 05:21:35;;;;;;;5.63;2.33;;;9.90;99.90;;;;;;5062735;28;20233;-58
2024/02/13 05:24:03;;;;;;;5.83;2.00;;;9.80;99.90;;;;;;5062435;28;20627;-58
2024/02/13 05:26:30;;;;;;;5.97;2.10;;;9.80;99.90;;;;;;5063642;28;20663;-58
2024/02/13 05:28:57;;;;;;;9.67;2.30;;;9.80;99.90;;;;;;5065409;28;20208;-58
2024/02/13 05:31:24;;;;;;;5.20;2.30;;;9.90;99.90;;;;;;5063710;28;20636;-58
2024/02/13 05:33:52;;;;;;;5.80;1.93;;;9.70;99.90;;;;;;5062233;28;20220;-59
2024/02/13 05:36:19;;;;;;;4.30;1.60;;;9.70;99.90;;;;;;5062572;28;20216;-58
2024/02/13 05:38:47;;;;;;;5.20;1.60;;;9.60;99.90;;;;;;5064984;28;20278;-60
2024/02/13 05:41:14;;;;;;;3.63;2.00;;;9.50;99.90;;;;;;5064931;28;20674;-59
2024/02/13 05:43:41;;;;;;;3.83;1.57;;;9.50;99.90;;;;;;5062275;28;20204;-58
2024/02/13 05:46:08;;;;;;;8.73;2.07;;;9.40;99.90;;;;;;5062018;28;20268;-59
2024/02/13 05:48:36;;;;;;;8.50;1.87;;;9.40;99.90;;;;;;5064660;28;20197;-59
2024/02/13 05:51:09;;;;;;;6.93;2.00;;;9.30;99.90;;;;;;5064764;28;20236;-59
2024/02/13 05:53:35;;;;;;;12.57;5.73;;;9.30;99.90;;;;;;5062118;28;20206;-59
2024/02/13 05:56:03;;;;;;;3.30;2.03;;;9.30;99.90;;;;;;5061600;28;20479;-59
2024/02/13 05:58:30;;;;;;;8.17;2.23;;;9.30;99.90;;;;;;5063476;28;20304;-59
2024/02/13 06:00:57;;;;;;;2.70;1.40;;;9.30;99.90;;;;;;5064688;28;20258;-59
2024/02/13 06:03:24;;;;;;;3.23;1.90;;;9.30;99.90;;;;;;5063606;28;20205;-57
2024/02/13 06:05:51;;;;;;;5.63;2.47;;;9.30;99.90;;;;;;5061168;28;20678;-58
2024/02/13 06:08:20;;;;;;;7.93;1.80;;;9.30;99.90;;;;;;5061667;28;20202;-59
2024/02/13 06:10:47;;;;;;;8.90;1.90;;;9.30;99.90;;;;;;5064126;28;20299;-58
2024/02/13 06:13:14;;;;;;;5.83;2.43;;;9.30;99.90;;;;;;5064397;28;20216;-58
2024/02/13 06:15:41;;;;;;;4.13;2.20;;;9.30;99.90;;;;;;5053242;28;20316;-58
2024/02/13 06:18:08;;;;;;;6.67;2.07;;;9.30;99.90;;;;;;5060570;28;20221;-58
2024/02/13 06:20:34;;;;;;;5.60;2.30;;;9.30;99.90;;;;;;5063275;28;20209;-58
2024/02/13 06:23:01;;;;;;;3.40;1.50;;;9.30;99.90;;;;;;5064117;28;20239;-58
2024/02/13 06:25:30;;;;;;;7.50;3.30;;;9.30;99.90;;;;;;5062471;28;20201;-59
2024/02/13 06:27:56;;;;;;;8.37;4.00;;;9.30;99.90;;;;;;5061025;28;20201;-59
2024/02/13 06:30:23;;;;;;;6.33;1.90;;;9.40;99.90;;;;;;5061670;28;20206;-59
2024/02/13 06:32:50;;;;;;;4.67;1.70;;;9.40;99.90;;;;;;5064146;28;20225;-59
2024/02/13 06:35:17;;;;;;;6.27;2.77;;;9.40;99.90;;;;;;5063987;28;20231;-59
2024/02/13 06:37:44;;;;;;;4.83;2.20;;;9.40;99.90;;;;;;5059677;28;20217;-59
2024/02/13 06:40:11;;;;;;;7.73;3.73;;;9.40;99.90;;;;;;5060140;28;20240;-59
2024/02/13 06:42:39;;;;;;;3.37;1.90;;;9.40;99.90;;;;;;5063561;28;20227;-59
2024/02/13 06:45:09;;;;;;;3.67;1.53;;;9.40;99.90;;;;;;5064024;28;20205;-59
2024/02/13 06:47:36;;;;;;;8.83;2.10;;;9.40;99.90;;;;;;5061248;28;20205;-59
2024/02/13 06:50:07;;;;;;;6.63;2.07;;;9.40;99.90;;;;;;5060141;28;20212;-59
2024/02/13 06:52:33;;;;;;;3.53;2.03;;;9.40;99.90;;;;;;5062447;28;20234;-59
2024/02/13 06:55:00;;;;;;;5.23;2.20;;;9.50;99.90;;;;;;5064114;28;20660;-59
2024/02/13 06:57:27;;;;;;;5.20;1.83;;;9.40;99.90;;;;;;5062223;28;20643;-59
2024/02/13 06:59:55;;;;;;;4.47;1.57;;;9.40;99.90;;;;;;5060231;28;20237;-59
2024/02/13 07:02:21;;;;;;;3.60;1.77;;;9.50;99.90;;;;;;5060918;28;20225;-59
2024/02/13 07:04:48;;;;;;;4.63;1.70;;;9.50;99.90;;;;;;5063519;28;20213;-59
2024/02/13 07:07:15;;;;;;;7.37;2.33;;;9.60;99.90;;;;;;5063393;28;20205;-59
2024/02/13 07:09:45;;;;;;;5.03;1.90;;;9.70;99.90;;;;;;5060163;28;20256;-59
2024/02/13 07:12:12;;;;;;;5.53;2.20;;;9.60;99.90;;;;;;5060151;28;20233;-60
2024/02/13 07:14:39;;;;;;;5.90;2.30;;;9.60;99.90;;;;;;5063050;28;20212;-58
2024/02/13 07:17:07;;;;;;;8.30;2.90;;;9.60;99.90;;;;;;5063670;28;20212;-59
2024/02/13 07:19:33;;;;;;;7.23;3.33;;;9.60;99.90;;;;;;5060469;28;20221;-59
2024/02/13 07:22:00;;;;;;;6.67;3.27;;;9.60;99.90;;;;;;5060036;28;20303;-59
2024/02/13 07:24:26;;;;;;;6.70;2.83;;;9.70;99.90;;;;;;5061370;28;20685;-59
2024/02/13 07:26:53;;;;;;;6.10;2.87;;;9.70;99.90;;;;;;5063313;28;20674;-59
2024/02/13 07:29:20;;;;;;;5.77;1.80;;;9.80;99.90;;;;;;5062546;28;20836;-59
2024/02/13 07:31:46;;;;;;;8.80;6.10;;;9.80;99.90;;;;;;5059863;28;20652;-59
2024/02/13 07:34:14;;;;;;;5.73;2.03;;;9.90;99.90;;;;;;5059848;28;20251;-59
2024/02/13 07:36:41;;;;;;;7.50;2.47;;;9.90;99.90;;;;;;5062963;28;20205;-59
2024/02/13 07:39:09;;;;;;;4.97;1.80;;;9.80;99.90;;;;;;5063329;28;20217;-59
2024/02/13 07:41:36;;;;;;;7.27;2.20;;;9.80;99.90;;;;;;5060777;28;20228;-59
2024/02/13 07:44:03;;;;;;;3.77;1.93;;;9.80;99.90;;;;;;5060272;28;20207;-59
2024/02/13 07:46:30;;;;;;;6.47;1.90;;;9.90;99.90;;;;;;5061341;28;20208;-59
2024/02/13 07:48:57;;;;;;;4.83;1.60;;;10.00;99.90;;;;;;5063911;28;20209;-58
2024/02/13 07:51:25;;;;;;;6.30;1.50;;;10.00;99.90;;;;;;5066326;28;20225;-59
2024/02/13 07:53:54;;;;;;;9.30;2.00;;;9.90;99.90;;;;;;5063841;28;20212;-63
2024/02/13 07:56:28;;;;;;;8.13;2.43;;;9.90;99.90;;;;;;5064159;28;20232;-59
2024/02/13 07:58:56;;;;;;;5.63;1.80;;;10.00;99.90;;;;;;5067315;28;20241;-60
2024/02/13 08:01:23;;;;;;;6.10;1.80;;;10.10;99.90;;;;;;5065898;28;20228;-61
2024/02/13 08:03:50;;;;;;;9.37;2.50;;;10.30;99.90;;;;;;5063389;28;20675;-60
2024/02/13 08:06:16;;;;;;;5.77;2.47;;;10.50;99.90;;;;;;5063426;28;20271;-61
2024/02/13 08:08:46;;;;;;;2.80;1.80;;;10.60;99.90;;;;;;5066554;28;20220;-59
2024/02/13 08:11:13;;;;;;;5.37;2.37;;;10.70;99.90;;;;;;5066571;28;20221;-60
2024/02/13 08:13:39;;;;;;;5.00;2.00;;;10.70;99.90;;;;;;5063474;28;20202;-61
2024/02/13 08:16:07;;;;;;;3.37;1.90;;;10.60;99.90;;;;;;5063771;28;20240;-60
2024/02/13 08:18:34;;;;;;;6.57;2.20;;;10.70;99.90;;;;;;5065203;28;20313;-59
2024/02/13 08:21:01;;;;;;;3.47;1.70;;;10.70;99.90;;;;;;5066407;28;20205;-60
2024/02/13 08:23:28;;;;;;;7.90;2.10;;;10.70;99.90;;;;;;5065433;28;20208;-61
2024/02/13 08:25:56;;;;;;;5.63;1.90;;;10.70;99.90;;;;;;5063091;28;20214;-61
2024/02/13 08:28:23;;;;;;;6.60;2.30;;;10.70;99.90;;;;;;5063485;28;20697;-61
2024/02/13 08:30:50;;;;;;;3.63;1.60;;;10.90;99.90;;;;;;5066090;28;20671;-61
2024/02/13 08:33:17;;;;;;;6.23;1.77;;;11.20;99.90;;;;;;5066765;28;20631;-61
2024/02/13 08:35:44;;;;;;;4.93;2.20;;;11.50;99.90;;;;;;5063023;28;20209;-60
2024/02/13 08:38:11;;;;;;;6.47;2.20;;;11.60;99.90;;;;;;5062806;28;20236;-61
2024/02/13 08:40:38;;;;;;;14.73;9.00;;;11.70;99.90;;;;;;5065157;28;20241;-61
2024/02/13 08:43:06;;;;;;;3.50;1.80;;;11.80;99.90;;;;;;5066136;28;20737;-62
2024/02/13 08:45:32;;;;;;;3.43;1.63;;;11.80;99.90;;;;;;5064289;28;20738;-62
2024/02/13 08:47:59;;;;;;;5.33;1.90;;;11.90;99.90;;;;;;5062737;28;20213;-60
2024/02/13 08:50:27;;;;;;;22.03;5.90;;;12.00;99.90;;;;;;5064743;28;20643;-60
2024/02/13 08:52:54;;;;;;;7.30;1.80;;;12.10;99.90;;;;;;5065954;28;20233;-60
2024/02/13 08:55:21;;;;;;;6.97;2.80;;;12.40;99.90;;;;;;5065643;28;20209;-59
2024/02/13 08:57:47;;;;;;;14.60;8.83;;;12.40;99.90;;;;;;5062900;28;20206;-61
2024/02/13 09:00:16;;;;;;;39.20;33.47;;;12.50;99.90;;;;;;5061890;28;20363;-61
2024/02/13 09:02:43;;;;;;;5.20;2.33;;;12.30;99.90;;;;;;5065514;28;20225;-61
2024/02/13 09:05:12;;;;;;;4.57;1.60;;;12.10;99.90;;;;;;5066186;28;20205;-65
2024/02/13 09:07:39;;;;;;;7.47;2.00;;;11.90;99.90;;;;;;5054934;28;20218;-66
2024/02/13 09:10:06;;;;;;;3.87;2.10;;;11.60;99.90;;;;;;5066286;28;20209;-67
2024/02/13 09:12:33;;;;;;;5.73;1.97;;;11.40;99.90;;;;;;5064750;28;20740;-62
2024/02/13 09:15:00;;;;;;;4.37;2.13;;;11.30;99.90;;;;;;5063088;28;20217;-64
2024/02/13 09:17:28;;;;;;;4.27;2.03;;;11.20;99.90;;;;;;5062844;28;20212;-63
2024/02/13 09:19:54;;;;;;;5.73;2.13;;;11.20;99.90;;;;;;5065196;28;20221;-65
2024/02/13 09:22:21;;;;;;;7.17;2.20;;;11.20;99.90;;;;;;5064870;28;20237;-65
2024/02/13 09:24:50;;;;;;;6.23;2.50;;;11.20;99.90;;;;;;5061818;28;20627;-64
2024/02/13 09:27:17;;;;;;;6.67;2.07;;;11.20;99.90;;;;;;5062424;28;20296;-64
2024/02/13 09:29:44;;;;;;;4.30;1.77;;;11.20;99.90;;;;;;5065028;28;20197;-63
2024/02/13 09:32:11;;;;;;;6.07;2.20;;;11.30;99.90;;;;;;5065450;28;20225;-65
2024/02/13 09:34:39;;;;;;;6.77;2.30;;;11.20;99.90;;;;;;5062818;28;20651;-64
2024/02/13 09:37:06;;;;;;;5.87;2.17;;;11.20;99.90;;;;;;5061714;28;20205;-62
2024/02/13 09:39:33;;;;;;;6.23;1.80;;;11.20;99.90;;;;;;5063326;28;20232;-67
2024/02/13 09:42:03;;;;;;;5.27;2.00;;;11.30;99.90;;;;;;5065303;28;20220;-63
2024/02/13 09:44:29;;;;;;;7.70;2.37;;;11.50;99.90;;;;;;5063534;28;20584;-63
2024/02/13 09:46:56;;;;;;;6.73;1.83;;;11.70;99.90;;;;;;5061690;28;20209;-63
2024/02/13 09:49:23;;;;;;;6.17;1.90;;;11.80;99.90;;;;;;5061419;28;20213;-61
2024/02/13 09:51:53;;;;;;;4.87;2.57;;;11.90;99.90;;;;;;5065232;28;20652;-63
2024/02/13 09:54:23;;;;;;;7.63;2.10;;;12.00;99.90;;;;;;5065052;28;20209;-63
2024/02/13 09:56:51;;;;;;;4.87;1.57;;;12.10;99.90;;;;;;5053393;28;20201;-63
2024/02/13 09:59:20;;;;;;;5.37;1.60;;;12.20;99.90;;;;;;5061074;28;20249;-64
2024/02/13 10:01:47;;;;;;;3.83;1.93;;;12.40;99.90;;;;;;5064680;28;20312;-64
2024/02/13 10:04:14;;;;;;;4.37;2.17;;;12.30;99.90;;;;;;5064144;28;20701;-66
2024/02/13 10:06:41;;;;;;;3.23;1.90;;;12.60;99.90;;;;;;5061552;28;20209;-66
2024/02/13 10:09:11;;;;;;;4.53;2.27;;;12.80;99.90;;;;;;5060515;28;20686;-68
2024/02/13 10:11:40;;;;;;;3.40;1.60;;;12.80;99.90;;;;;;5060876;28;20329;-62
2024/02/13 10:14:16;;;;;;;6.20;1.80;;;12.90;99.90;;;;;;5060187;28;20212;-62
2024/02/13 10:16:44;;;;;;;6.07;2.00;;;12.70;99.90;;;;;;5063492;28;20229;-62
2024/02/13 10:19:13;;;;;;;8.37;2.10;;;12.70;99.90;;;;;;5064163;28;20237;-61
2024/02/13 10:21:41;;;;;;;3.80;1.70;;;12.60;99.90;;;;;;5061233;28;20227;-61
2024/02/13 10:24:12;;;;;;;5.80;1.80;;;12.50;99.90;;;;;;5060488;28;20667;-62
2024/02/13 10:26:39;;;;;;;4.33;1.80;;;12.50;99.90;;;;;;5062602;28;20206;-62
2024/02/13 10:29:07;;;;;;;5.83;2.33;;;12.30;99.90;;;;;;5063936;28;20201;-62
2024/02/13 10:31:35;;;;;;;3.57;1.90;;;12.10;99.90;;;;;;5062273;28;20726;-62
2024/02/13 10:34:04;;;;;;;5.77;2.27;;;12.00;99.90;;;;;;5060625;28;20258;-62
2024/02/13 10:36:32;;;;;;;9.00;4.67;;;12.00;99.90;;;;;;5061616;28;20217;-62
2024/02/13 10:39:05;;;;;;;6.37;1.90;;;12.10;99.90;;;;;;5063671;28;20294;-62
2024/02/13 10:41:39;;;;;;;6.97;2.00;;;12.20;99.90;;;;;;5064224;28;20304;-64
2024/02/13 10:44:09;;;;;;;4.67;1.87;;;12.30;99.90;;;;;;5060770;28;20205;-65
2024/02/13 10:46:39;;;;;;;4.97;2.33;;;12.20;99.90;;;;;;5061958;28;20270;-64
2024/02/13 10:49:19;;;;;;;5.93;1.90;;;12.20;99.90;;;;;;5063324;28;20211;-66
2024/02/13 10:51:46;;;;;;;4.73;1.77;;;12.10;99.90;;;;;;5060373;28;20649;-66
2024/02/13 10:54:15;;;;;;;4.07;1.77;;;12.20;99.90;;;;;;5060024;28;20213;-67
2024/02/13 10:56:45;;;;;;;4.13;1.60;;;12.30;99.90;;;;;;5063342;28;20213;-64
2024/02/13 10:59:13;;;;;;;5.60;1.70;;;12.20;99.90;;;;;;5063323;28;20224;-64
2024/02/13 11:01:43;;;;;;;7.27;2.00;;;12.10;99.90;;;;;;5061128;28;20270;-65
2024/02/13 11:04:12;;;;;;;5.63;1.53;;;11.90;99.90;;;;;;5060020;28;20201;-64
2024/02/13 11:06:39;;;;;;;4.80;1.77;;;11.60;99.90;;;;;;5061768;28;20214;-63
2024/02/13 11:09:12;;;;;;;4.27;1.70;;;11.50;99.90;;;;;;5063544;28;20208;-64
2024/02/13 11:11:39;;;;;;;5.43;1.60;;;11.40;99.90;;;;;;5061365;28;20235;-62
2024/02/13 11:14:16;;;;;;;3.10;1.30;;;11.50;99.90;;;;;;5060060;28;20205;-65
2024/02/13 11:16:51;;;;;;;8.57;3.23;;;11.50;99.90;;;;;;5062475;28;20290;-63
2024/02/13 11:19:19;;;;;;;5.60;1.50;;;11.80;99.90;;;;;;5062930;28;20255;-63
2024/02/13 11:21:48;;;;;;;8.07;1.97;;;12.00;99.90;;;;;;5059918;28;20320;-66
2024/02/13 11:24:21;;;;;;;3.37;1.30;;;12.20;99.90;;;;;;5059704;28;20213;-64
2024/02/13 11:26:47;;;;;;;3.90;1.50;;;12.60;99.90;;;;;;5062932;28;20671;-65
2024/02/13 11:29:20;;;;;;;3.20;1.50;;;12.70;99.90;;;;;;5063522;28;20201;-64
2024/02/13 11:31:54;;;;;;;9.00;5.60;;;13.10;99.90;;;;;;5060129;28;20772;-65
2024/02/13 11:34:22;;;;;;;2.40;1.50;;;13.60;99.90;;;;;;5059741;28;20248;-63
2024/02/13 11:36:49;;;;;;;2.67;1.33;;;13.90;99.90;;;;;;5062910;28;20213;-66
2024/02/13 11:39:17;;;;;;;7.27;1.83;;;14.00;99.90;;;;;;5062797;28;20256;-65
2024/02/13 11:41:44;;;;;;;3.87;1.43;;;13.80;99.90;;;;;;5060398;28;20252;-64
2024/02/13 11:44:12;;;;;;;3.80;2.03;;;13.50;99.90;;;;;;5059602;28;20220;-64
2024/02/13 11:46:40;;;;;;;4.30;1.47;;;13.30;99.90;;;;;;5061200;28;20229;-65
2024/02/13 11:49:09;;;;;;;4.93;1.77;;;13.40;99.90;;;;;;5062698;28;20687;-62
2024/02/13 11:51:36;;;;;;;3.63;1.27;;;13.20;99.90;;;;;;5061151;28;20714;-65
2024/02/13 11:54:05;;;;;;;7.87;2.30;;;13.20;99.90;;;;;;5059346;28;20293;-63
2024/02/13 11:56:32;;;;;;;4.27;1.33;;;13.00;99.90;;;;;;5060313;28;20205;-65
2024/02/13 11:59:05;;;;;;;4.13;1.40;;;12.90;99.90;;;;;;5062718;28;20197;-64
2024/02/13 12:01:33;;;;;;;3.77;1.90;;;12.50;99.90;;;;;;5061836;28;20227;-64
2024/02/13 12:04:01;;;;;;;7.70;2.90;;;12.20;99.90;;;;;;5059651;28;20232;-64
2024/02/13 12:06:28;;;;;;;4.40;2.03;;;11.90;99.90;;;;;;5059867;28;20263;-64
2024/02/13 12:08:58;;;;;;;5.63;3.33;;;11.90;99.90;;;;;;5062733;28;20741;-64
2024/02/13 12:11:25;;;;;;;6.03;1.40;;;12.10;99.90;;;;;;5062787;28;20216;-64
2024/02/13 12:13:54;;;;;;;6.53;1.80;;;12.30;99.90;;;;;;5051534;28;20205;-64
2024/02/13 12:16:22;;;;;;;4.87;1.53;;;12.60;99.90;;;;;;5059568;28;20284;-64
2024/02/13 12:18:49;;;;;;;3.40;1.43;;;12.70;99.90;;;;;;5062335;28;20203;-64
2024/02/13 12:21:17;;;;;;;4.53;1.43;;;12.90;99.90;;;;;;5062630;28;20223;-64
2024/02/13 12:23:44;;;;;;;4.13;1.40;;;12.90;99.90;;;;;;5060084;28;20595;-64
2024/02/13 12:26:11;;;;;;;7.90;1.60;;;12.90;99.90;;;;;;5059486;28;20266;-65
2024/02/13 12:28:39;;;;;;;4.80;1.40;;;13.20;99.90;;;;;;5060948;28;20209;-64
2024/02/13 12:31:06;;;;;;;5.27;1.17;;;13.40;99.90;;;;;;5062451;28;20220;-65
2024/02/13 12:33:32;;;;;;;2.17;1.03;;;13.50;99.90;;;;;;5061729;28;20205;-65
2024/02/13 12:36:01;;;;;;;4.23;1.50;;;13.60;99.90;;;;;;5060418;28;20205;-64
2024/02/13 12:38:31;;;;;;;2.53;0.93;;;13.60;99.90;;;;;;5062890;28;20244;-64
2024/02/13 12:40:58;;;;;;;6.23;1.57;;;13.40;99.90;;;;;;5066100;28;20224;-65
2024/02/13 12:43:27;;;;;;;2.90;1.00;;;13.40;99.90;;;;;;5066317;28;20209;-64
2024/02/13 12:45:55;;;;;;;5.23;1.13;;;13.60;99.90;;;;;;5054772;28;20202;-65
2024/02/13 12:48:22;;;;;;;2.93;1.30;;;13.90;99.90;;;;;;5062816;28;20198;-65
2024/02/13 12:50:51;;;;;;;4.40;1.27;;;14.10;99.90;;;;;;5065213;28;20242;-64
2024/02/13 12:53:21;;;;;;;2.07;1.00;;;14.10;99.90;;;;;;5066281;28;20213;-65
2024/02/13 12:55:49;;;;;;;2.67;0.97;;;13.80;99.90;;;;;;5062770;28;20701;-65
2024/02/13 12:58:18;;;;;;;2.00;0.87;;;13.60;99.90;;;;;;5062431;28;20197;-65
2024/02/13 13:00:47;;;;;;;1.27;0.70;;;13.50;99.90;;;;;;5064463;28;20311;-65